Time;durP1;ratioP1;P1;durP2;ratioP2;P2;SDS_P1;SDS_P2;PMS_P1;PMS_P2;Temp;Humidity;BMP_temperature;BMP_pressure;BME280_temperature;BME280_humidity;BME280_pressure;Samples;Min_cycle;Max_cycle;Signal;HPM_P1;HPM_P2
2021/04/05 00:00:08;;;;;;;77.28;35.70;;;5.10;99.90;;;;;;5075262;28;20531;-73
2021/04/05 00:02:33;;;;;;;80.78;36.28;;;5.20;99.90;;;;;;5057301;28;20071;-73
2021/04/05 00:04:59;;;;;;;74.25;34.63;;;5.20;99.90;;;;;;5075426;28;20045;-73
2021/04/05 00:07:24;;;;;;;76.20;36.28;;;5.20;99.90;;;;;;5073694;28;20017;-73
2021/04/05 00:09:50;;;;;;;70.97;34.38;;;5.30;99.90;;;;;;5075326;28;20024;-73
2021/04/05 00:12:15;;;;;;;78.00;37.83;;;5.30;99.90;;;;;;5074717;28;20037;-73
2021/04/05 00:14:42;;;;;;;77.53;33.85;;;5.30;99.90;;;;;;5075266;28;20103;-73
2021/04/05 00:17:08;;;;;;;67.78;34.53;;;5.30;99.90;;;;;;5074893;28;20016;-73
2021/04/05 00:19:37;;;;;;;71.70;33.95;;;5.40;99.90;;;;;;5075100;28;20031;-73
2021/04/05 00:22:03;;;;;;;74.07;33.97;;;5.40;99.90;;;;;;5073077;28;20029;-73
2021/04/05 00:24:28;;;;;;;64.20;33.28;;;5.50;99.90;;;;;;5075056;28;20053;-73
2021/04/05 00:26:54;;;;;;;74.90;33.15;;;5.50;99.90;;;;;;5056858;28;20028;-73
2021/04/05 00:29:19;;;;;;;67.75;30.85;;;5.50;99.90;;;;;;5074959;28;20024;-73
2021/04/05 00:31:45;;;;;;;64.15;32.75;;;5.50;99.90;;;;;;5074928;28;20393;-73
2021/04/05 00:34:10;;;;;;;61.90;29.27;;;5.50;99.90;;;;;;5074864;28;20029;-73
2021/04/05 00:36:36;;;;;;;59.80;31.00;;;5.50;99.90;;;;;;5074537;28;20052;-73
2021/04/05 00:39:05;;;;;;;63.28;30.77;;;5.60;99.90;;;;;;5073962;28;20074;-73
2021/04/05 00:41:31;;;;;;;58.55;30.05;;;5.60;99.90;;;;;;5074706;28;20017;-73
2021/04/05 00:43:56;;;;;;;64.20;29.70;;;5.60;99.90;;;;;;5074666;28;20025;-73
2021/04/05 00:46:24;;;;;;;60.83;29.52;;;5.50;99.90;;;;;;5074095;28;20032;-73
2021/04/05 00:48:50;;;;;;;51.08;27.40;;;5.60;99.90;;;;;;5074311;28;20047;-73
2021/04/05 00:51:20;;;;;;;56.55;27.80;;;5.60;99.90;;;;;;5074276;28;20028;-73
2021/04/05 00:53:46;;;;;;;59.65;29.58;;;5.60;99.90;;;;;;5074165;28;20028;-73
2021/04/05 00:56:15;;;;;;;56.80;25.50;;;5.60;99.90;;;;;;5072619;28;20082;-73
2021/04/05 00:58:42;;;;;;;58.85;26.95;;;5.70;99.90;;;;;;5074076;28;20111;-73
2021/04/05 01:01:10;;;;;;;56.83;25.58;;;5.70;99.90;;;;;;5074349;28;20048;-73
2021/04/05 01:03:41;;;;;;;51.13;27.17;;;5.70;99.90;;;;;;5074066;28;20052;-73
2021/04/05 01:06:13;;;;;;;54.08;25.38;;;5.70;99.90;;;;;;5072823;28;20039;-73
2021/04/05 01:08:39;;;;;;;60.92;28.65;;;5.70;99.90;;;;;;5074246;28;20487;-72
2021/04/05 01:11:05;;;;;;;55.97;25.92;;;5.70;99.90;;;;;;5073940;28;20032;-72
2021/04/05 01:13:31;;;;;;;53.33;25.63;;;5.70;99.90;;;;;;5072342;28;20032;-72
2021/04/05 01:15:56;;;;;;;57.08;25.35;;;5.70;99.90;;;;;;5073866;28;20028;-72
2021/04/05 01:18:22;;;;;;;57.38;26.00;;;5.70;99.90;;;;;;5073516;28;20362;-72
2021/04/05 01:20:48;;;;;;;59.35;26.98;;;5.70;99.90;;;;;;5074085;28;20078;-73
2021/04/05 01:23:16;;;;;;;53.13;26.10;;;5.70;99.90;;;;;;5074073;28;20020;-73
2021/04/05 01:25:42;;;;;;;54.83;25.27;;;5.70;99.90;;;;;;5074030;28;20021;-73
2021/04/05 01:28:08;;;;;;;54.42;25.65;;;5.70;99.90;;;;;;5073998;28;20381;-73
2021/04/05 01:30:39;;;;;;;52.05;25.63;;;5.70;99.90;;;;;;5072535;28;20025;-73
2021/04/05 01:36:10;;;;;;;67.13;25.58;;;5.60;99.90;;;;;;5112166;27;20420;-73
2021/04/05 01:38:43;;;;;;;54.90;23.57;;;5.70;99.90;;;;;;5111912;28;20093;-73
2021/04/05 01:41:28;;;;;;;58.20;26.15;;;5.70;99.90;;;;;;5111570;28;20020;-73
2021/04/05 01:43:54;;;;;;;50.47;25.05;;;5.70;99.90;;;;;;5111518;28;20064;-73
2021/04/05 01:46:21;;;;;;;59.13;24.80;;;5.60;99.90;;;;;;5111750;28;20027;-73
2021/04/05 01:48:47;;;;;;;49.63;25.48;;;5.60;99.90;;;;;;5111415;28;20023;-73
2021/04/05 01:51:16;;;;;;;58.35;25.83;;;5.70;99.90;;;;;;5111666;28;20106;-73
2021/04/05 01:53:43;;;;;;;51.03;23.95;;;5.60;99.90;;;;;;5092790;28;20062;-73
2021/04/05 01:56:11;;;;;;;53.35;24.42;;;5.70;99.90;;;;;;5111258;28;20402;-73
2021/04/05 01:58:38;;;;;;;59.17;24.40;;;5.60;99.90;;;;;;5111510;28;20024;-73
2021/04/05 02:01:07;;;;;;;53.00;24.02;;;5.70;99.90;;;;;;5110597;28;20035;-73
2021/04/05 02:03:33;;;;;;;51.05;24.20;;;5.70;99.90;;;;;;5111473;28;20016;-73
2021/04/05 02:06:04;;;;;;;55.50;23.63;;;5.70;99.90;;;;;;5111345;28;20051;-73
2021/04/05 02:08:30;;;;;;;52.25;23.70;;;5.70;99.90;;;;;;5111085;28;20099;-73
2021/04/05 02:11:00;;;;;;;53.78;23.92;;;5.70;99.90;;;;;;5111275;28;20169;-73
2021/04/05 02:13:27;;;;;;;54.42;23.70;;;5.80;99.90;;;;;;5111272;28;20041;-73
2021/04/05 02:15:54;;;;;;;48.97;24.55;;;5.80;99.90;;;;;;5110864;28;20125;-73
2021/04/05 02:18:22;;;;;;;51.72;24.40;;;5.80;99.90;;;;;;5110023;28;20034;-73
2021/04/05 02:20:48;;;;;;;60.25;23.40;;;5.80;99.90;;;;;;5110879;28;20030;-73
2021/04/05 02:23:14;;;;;;;50.13;24.13;;;5.80;99.90;;;;;;5110547;28;20102;-73
2021/04/05 02:26:13;;;;;;;50.15;20.70;;;5.80;99.90;;;;;;5111038;28;20477;-73
2021/04/05 02:28:28;;;;;;;59.42;24.65;;;5.80;99.90;;;;;;5110324;28;20046;-73
2021/04/05 02:30:55;;;;;;;49.08;22.00;;;5.80;99.90;;;;;;5110333;28;20111;-73
2021/04/05 02:33:21;;;;;;;63.08;24.95;;;5.80;99.90;;;;;;5109072;28;20024;-72
2021/04/05 02:35:47;;;;;;;53.80;24.33;;;5.90;99.90;;;;;;5110113;28;20424;-72
2021/04/05 02:38:13;;;;;;;45.30;20.77;;;5.90;99.90;;;;;;5110789;28;20027;-72
2021/04/05 02:40:41;;;;;;;56.10;24.50;;;5.90;99.90;;;;;;5110764;28;20024;-72
2021/04/05 02:43:09;;;;;;;48.35;21.40;;;6.00;99.90;;;;;;5109222;28;20043;-73
2021/04/05 02:45:36;;;;;;;54.92;25.08;;;5.90;99.90;;;;;;5107362;28;20403;-73
2021/04/05 02:48:03;;;;;;;56.35;22.15;;;5.90;99.90;;;;;;5096467;28;20032;-72
2021/04/05 02:50:31;;;;;;;57.55;24.77;;;6.00;99.90;;;;;;5096978;28;20024;-72
2021/04/05 02:53:00;;;;;;;56.30;22.98;;;6.00;99.90;;;;;;5096625;28;20031;-73
2021/04/05 02:55:26;;;;;;;62.42;25.33;;;6.00;99.90;;;;;;5096571;28;20077;-73
2021/04/05 02:57:52;;;;;;;55.92;24.92;;;6.00;99.90;;;;;;5096872;28;20455;-73
2021/04/05 03:00:20;;;;;;;55.25;24.77;;;6.00;99.90;;;;;;5096791;28;20023;-73
2021/04/05 03:02:49;;;;;;;57.05;24.33;;;6.00;99.90;;;;;;5096445;28;20495;-73
2021/04/05 03:05:18;;;;;;;51.83;23.92;;;6.10;99.90;;;;;;5096670;28;20365;-73
2021/04/05 03:07:44;;;;;;;54.10;24.90;;;6.10;99.90;;;;;;5096675;28;20035;-73
2021/04/05 03:10:11;;;;;;;52.90;25.02;;;6.10;99.90;;;;;;5096319;28;20415;-73
2021/04/05 03:12:40;;;;;;;51.30;25.83;;;6.10;99.90;;;;;;5096004;28;20036;-73
2021/04/05 03:15:08;;;;;;;59.25;26.05;;;6.20;99.90;;;;;;5095876;28;20043;-73
2021/04/05 03:17:35;;;;;;;57.33;25.73;;;6.10;99.90;;;;;;5096453;28;20020;-73
2021/04/05 03:20:03;;;;;;;57.42;24.00;;;6.10;99.90;;;;;;5096096;28;20085;-73
2021/04/05 03:22:29;;;;;;;50.03;24.02;;;6.20;99.90;;;;;;5096391;28;20044;-72
2021/04/05 03:24:54;;;;;;;54.22;25.13;;;6.20;99.90;;;;;;5094434;28;20455;-73
2021/04/05 03:27:20;;;;;;;58.35;25.67;;;6.20;99.90;;;;;;5094422;28;20111;-73
2021/04/05 03:29:47;;;;;;;56.53;24.63;;;6.20;99.90;;;;;;5095931;28;20038;-73
2021/04/05 03:32:16;;;;;;;55.38;23.70;;;6.30;99.90;;;;;;5094744;28;20108;-73
2021/04/05 03:34:48;;;;;;;58.67;23.83;;;6.30;99.90;;;;;;5095652;28;20128;-73
2021/04/05 03:37:17;;;;;;;51.60;24.23;;;6.30;99.90;;;;;;5094922;28;20469;-73
2021/04/05 03:39:43;;;;;;;58.72;22.95;;;6.30;99.90;;;;;;5095978;28;20020;-73
2021/04/05 03:42:13;;;;;;;60.13;23.85;;;6.30;99.90;;;;;;5095963;28;20361;-72
2021/04/05 03:45:04;;;;;;;49.70;24.42;;;6.30;99.90;;;;;;5095891;28;20052;-73
2021/04/05 03:48:10;;;;;;;60.13;25.70;;;6.30;99.90;;;;;;5095729;28;20020;-73
2021/04/05 03:50:49;;;;;;;52.55;22.30;;;6.30;99.90;;;;;;5095099;28;20504;-73
2021/04/05 03:53:30;;;;;;;57.42;26.02;;;6.40;99.90;;;;;;5094294;28;20024;-73
2021/04/05 03:56:01;;;;;;;57.47;26.17;;;6.30;99.90;;;;;;5078178;28;20503;-73
2021/04/05 03:58:30;;;;;;;58.72;25.20;;;6.30;99.90;;;;;;5094410;28;20027;-73
2021/04/05 04:01:02;;;;;;;57.05;26.17;;;6.40;99.90;;;;;;5095596;28;20020;-73
2021/04/05 04:03:36;;;;;;;54.20;24.50;;;6.30;99.90;;;;;;5095292;28;20020;-73
2021/04/05 04:06:04;;;;;;;58.13;24.27;;;6.30;99.90;;;;;;5095559;28;20077;-73
2021/04/05 04:08:38;;;;;;;56.08;26.27;;;6.30;99.90;;;;;;5095182;28;20016;-72
2021/04/05 04:11:05;;;;;;;;;;;6.40;99.90;;;;;;5095617;28;20468;-73
2021/04/05 04:13:35;;;;;;;64.75;26.27;;;6.40;99.90;;;;;;5095131;28;19908;-72
2021/04/05 04:16:02;;;;;;;67.25;27.38;;;6.40;99.90;;;;;;5094988;28;20028;-73
2021/04/05 04:18:29;;;;;;;57.10;25.48;;;6.40;99.90;;;;;;5095002;28;20024;-72
2021/04/05 04:20:55;;;;;;;61.03;25.77;;;6.50;99.90;;;;;;5094078;28;20019;-73
2021/04/05 04:23:21;;;;;;;49.30;22.23;;;6.50;99.90;;;;;;5093614;28;20081;-73
2021/04/05 04:25:51;;;;;;;58.55;26.27;;;6.50;99.90;;;;;;5094550;28;20024;-73
2021/04/05 04:28:17;;;;;;;61.42;27.23;;;6.50;99.90;;;;;;5093327;28;20035;-72
2021/04/05 04:30:42;;;;;;;67.00;27.50;;;6.50;99.90;;;;;;5094687;28;20376;-72
2021/04/05 04:33:10;;;;;;;57.78;27.08;;;6.50;99.90;;;;;;5094955;28;20024;-73
2021/04/05 04:35:38;;;;;;;58.75;26.13;;;6.50;99.90;;;;;;5094262;28;20048;-73
2021/04/05 04:38:05;;;;;;;60.38;28.80;;;6.50;99.90;;;;;;5094860;28;20020;-73
2021/04/05 04:40:33;;;;;;;61.05;28.10;;;6.50;99.90;;;;;;5094585;28;20169;-73
2021/04/05 04:43:01;;;;;;;60.95;30.88;;;6.50;99.90;;;;;;5094753;28;20020;-73
2021/04/05 04:45:27;;;;;;;71.45;29.77;;;6.50;99.90;;;;;;5094739;28;20086;-73
2021/04/05 04:47:55;;;;;;;72.47;28.58;;;6.50;99.90;;;;;;5094463;28;20116;-73
2021/04/05 04:50:22;;;;;;;68.40;29.95;;;6.50;99.90;;;;;;5094661;28;20028;-73
2021/04/05 04:52:48;;;;;;;58.85;29.73;;;6.50;99.90;;;;;;5094075;28;20104;-73
2021/04/05 04:55:15;;;;;;;72.97;30.48;;;6.50;99.90;;;;;;5093996;28;20052;-73
2021/04/05 04:57:40;;;;;;;61.50;26.75;;;6.50;99.90;;;;;;5094260;28;20027;-73
2021/04/05 05:00:07;;;;;;;64.82;31.27;;;6.60;99.90;;;;;;5093919;28;20020;-73
2021/04/05 05:02:40;;;;;;;67.90;30.75;;;6.60;99.90;;;;;;5094172;28;20074;-73
2021/04/05 05:05:07;;;;;;;66.63;32.03;;;6.50;99.90;;;;;;5094471;28;20063;-73
2021/04/05 05:07:35;;;;;;;58.75;29.85;;;6.60;99.90;;;;;;5094189;28;20045;-73
2021/04/05 05:10:01;;;;;;;63.47;30.30;;;6.60;99.90;;;;;;5092406;28;20024;-73
2021/04/05 05:12:27;;;;;;;63.03;29.77;;;6.60;99.90;;;;;;5094301;28;20039;-73
2021/04/05 05:14:53;;;;;;;63.30;29.45;;;6.60;99.90;;;;;;5093969;28;20100;-73
2021/04/05 05:17:19;;;;;;;63.20;28.40;;;6.60;99.90;;;;;;5094221;28;20027;-73
2021/04/05 05:19:46;;;;;;;61.38;29.42;;;6.70;99.90;;;;;;5093988;28;20020;-73
2021/04/05 05:22:15;;;;;;;57.47;30.38;;;6.60;99.90;;;;;;5094204;28;20016;-73
2021/04/05 05:24:44;;;;;;;58.15;28.70;;;6.70;99.90;;;;;;5094458;28;20020;-73
2021/04/05 05:27:11;;;;;;;61.97;28.08;;;6.70;99.90;;;;;;5093627;28;20377;-73
2021/04/05 05:29:37;;;;;;;62.97;28.98;;;6.70;99.90;;;;;;5092332;28;20031;-71
2021/04/05 05:32:03;;;;;;;61.85;29.38;;;6.70;99.90;;;;;;5093827;28;20392;-73
2021/04/05 05:34:29;;;;;;;61.58;26.38;;;6.70;99.90;;;;;;5092274;28;20044;-73
2021/04/05 05:36:55;;;;;;;64.00;28.95;;;6.70;99.90;;;;;;5093783;28;20378;-72
2021/04/05 05:39:20;;;;;;;65.72;30.13;;;6.80;99.90;;;;;;5093985;28;20055;-73
2021/04/05 05:42:23;;;;;;;59.47;27.90;;;6.80;99.90;;;;;;5093993;28;20031;-73
2021/04/05 05:45:04;;;;;;;59.78;29.75;;;6.80;99.90;;;;;;5093412;28;20034;-72
2021/04/05 05:48:09;;;;;;;59.28;28.65;;;6.80;99.90;;;;;;5091970;28;20449;-72
2021/04/05 05:51:05;;;;;;;66.38;29.98;;;6.80;99.90;;;;;;5093256;28;20099;-72
2021/04/05 05:53:58;;;;;;;65.35;31.50;;;6.80;99.90;;;;;;5093349;28;20032;-73
2021/04/05 05:57:03;;;;;;;62.25;32.95;;;6.80;99.90;;;;;;5093328;28;20374;-72
2021/04/05 05:59:53;;;;;;;67.63;30.25;;;6.70;99.90;;;;;;5093287;28;20447;-72
2021/04/05 06:02:58;;;;;;;71.20;35.60;;;6.70;99.90;;;;;;5093135;28;20028;-72
2021/04/05 06:05:32;;;;;;;71.97;35.53;;;6.60;99.90;;;;;;5093138;28;20024;-72
2021/04/05 06:08:25;;;;;;;60.00;26.70;;;6.60;99.90;;;;;;5093500;28;20197;-73
2021/04/05 06:11:30;;;;;;;72.75;34.17;;;6.60;99.90;;;;;;5093684;28;20020;-73
2021/04/05 06:14:06;;;;;;;69.88;35.30;;;6.50;99.90;;;;;;5092930;28;20397;-73
2021/04/05 06:19:20;;;;;;;68.68;34.53;;;6.60;99.90;;;;;;5112143;27;20351;-73
2021/04/05 06:21:59;;;;;;;70.32;35.80;;;6.60;99.90;;;;;;5111889;28;20051;-73
2021/04/05 06:24:52;;;;;;;78.57;35.42;;;6.60;99.90;;;;;;5111821;28;20024;-74
2021/04/05 06:27:32;;;;;;;80.20;38.03;;;6.50;99.90;;;;;;5111194;28;20061;-73
2021/04/05 06:30:25;;;;;;;80.93;36.88;;;6.50;99.90;;;;;;5110246;28;20055;-73
2021/04/05 06:33:20;;;;;;;77.88;37.00;;;6.50;99.90;;;;;;5111022;28;20073;-73
2021/04/05 06:36:26;;;;;;;72.72;37.25;;;6.50;99.90;;;;;;5111321;28;20020;-73
2021/04/05 06:39:11;;;;;;;80.10;38.55;;;6.40;99.90;;;;;;5110720;28;20024;-73
2021/04/05 06:41:53;;;;;;;73.57;34.33;;;6.50;99.90;;;;;;5111211;28;20024;-73
2021/04/05 06:44:47;;;;;;;78.10;37.90;;;6.50;99.90;;;;;;5111702;28;20055;-74
2021/04/05 06:47:52;;;;;;;77.53;36.83;;;6.50;99.90;;;;;;5111106;28;20464;-75
2021/04/05 06:50:46;;;;;;;73.57;38.03;;;6.50;99.90;;;;;;5110817;28;20031;-72
2021/04/05 06:53:51;;;;;;;75.32;38.33;;;6.60;99.90;;;;;;5111297;28;20368;-73
2021/04/05 06:56:32;;;;;;;76.95;37.05;;;6.50;99.90;;;;;;5109286;28;20031;-73
2021/04/05 06:59:24;;;;;;;75.05;36.15;;;6.60;99.90;;;;;;5110834;28;20027;-74
2021/04/05 07:02:16;;;;;;;73.55;36.80;;;6.60;99.90;;;;;;5110632;28;20070;-74
2021/04/05 07:05:22;;;;;;;81.82;39.95;;;6.60;99.90;;;;;;5110411;28;20106;-73
2021/04/05 07:08:14;;;;;;;77.03;36.67;;;6.60;99.90;;;;;;5110557;28;20361;-73
2021/04/05 07:10:46;;;;;;;82.43;39.47;;;6.60;99.90;;;;;;5109310;28;20032;-73
2021/04/05 07:13:29;;;;;;;83.18;40.08;;;6.60;99.90;;;;;;5110897;28;20019;-73
2021/04/05 07:16:31;;;;;;;82.47;37.85;;;6.50;99.90;;;;;;5110875;28;20103;-73
2021/04/05 07:19:36;;;;;;;88.40;42.00;;;6.50;99.90;;;;;;5109933;28;20101;-74
2021/04/05 07:22:26;;;;;;;28.38;14.02;;;6.30;99.90;;;;;;5110049;28;20392;-74
2021/04/05 07:25:01;;;;;;;22.02;7.82;;;5.40;99.90;;;;;;5110159;28;20035;-73
2021/04/05 07:27:50;;;;;;;11.90;6.07;;;4.90;99.90;;;;;;5110071;28;20082;-73
2021/04/05 07:30:24;;;;;;;18.13;6.05;;;4.70;99.90;;;;;;5097530;28;20474;-73
2021/04/05 07:33:16;;;;;;;11.73;5.50;;;4.60;99.90;;;;;;5096942;28;20099;-73
2021/04/05 07:36:22;;;;;;;12.30;5.95;;;4.60;99.90;;;;;;5095747;28;20389;-73
2021/04/05 07:39:03;;;;;;;12.02;5.57;;;4.60;99.90;;;;;;5096075;28;20034;-73
2021/04/05 07:41:53;;;;;;;11.30;4.15;;;4.50;99.90;;;;;;5096776;28;20024;-73
2021/04/05 07:44:50;;;;;;;10.15;3.88;;;4.50;99.90;;;;;;5095123;28;20140;-74
2021/04/05 07:47:40;;;;;;;8.18;3.70;;;4.50;99.90;;;;;;5096186;28;20484;-73
2021/04/05 07:50:29;;;;;;;5.38;2.65;;;4.60;99.90;;;;;;5096611;28;20028;-74
2021/04/05 07:53:19;;;;;;;7.80;2.33;;;4.60;99.90;;;;;;5095906;28;20384;-73
2021/04/05 07:55:47;;;;;;;7.32;2.28;;;4.60;99.90;;;;;;5096449;28;20016;-74
2021/04/05 07:58:35;;;;;;;5.20;1.67;;;4.60;99.90;;;;;;5096399;28;20024;-74
2021/04/05 08:01:40;;;;;;;4.95;1.80;;;4.60;99.90;;;;;;5094619;28;20047;-73
2021/04/05 08:04:39;;;;;;;4.20;1.63;;;4.60;99.90;;;;;;5095649;28;20030;-73
2021/04/05 08:07:10;;;;;;;4.35;1.50;;;4.60;99.90;;;;;;5095713;28;20445;-74
2021/04/05 08:09:43;;;;;;;2.72;1.50;;;4.50;99.90;;;;;;5095976;28;20102;-73
2021/04/05 08:12:22;;;;;;;4.68;1.73;;;4.60;99.90;;;;;;5094422;28;20020;-73
2021/04/05 08:15:21;;;;;;;4.53;1.73;;;4.50;99.90;;;;;;5094275;28;20442;-73
2021/04/05 08:18:27;;;;;;;3.22;1.40;;;4.50;99.90;;;;;;5095212;28;20055;-73
2021/04/05 08:21:07;;;;;;;5.82;1.48;;;4.60;99.90;;;;;;5095722;28;20019;-73
2021/04/05 08:23:59;;;;;;;5.22;1.65;;;4.70;99.90;;;;;;5094540;28;20388;-73
2021/04/05 08:26:37;;;;;;;6.35;2.20;;;4.70;99.90;;;;;;5095332;28;20031;-73
2021/04/05 08:29:42;;;;;;;5.35;1.73;;;4.80;99.90;;;;;;5094468;28;20444;-73
2021/04/05 08:32:47;;;;;;;4.57;1.92;;;4.80;99.90;;;;;;5095175;28;20032;-73
2021/04/05 08:35:25;;;;;;;7.15;1.60;;;4.80;99.90;;;;;;5095741;28;20073;-73
2021/04/05 08:38:03;;;;;;;5.88;2.35;;;4.90;99.90;;;;;;5095712;28;20020;-73
2021/04/05 08:40:37;;;;;;;6.57;1.63;;;4.80;99.90;;;;;;5094427;28;20021;-74
2021/04/05 08:43:28;;;;;;;7.35;1.98;;;4.80;99.90;;;;;;5095342;28;20450;-73
2021/04/05 08:46:22;;;;;;;6.22;2.13;;;4.80;99.90;;;;;;5095229;28;20016;-73
2021/04/05 08:48:52;;;;;;;7.07;2.03;;;4.90;99.90;;;;;;5094980;28;20123;-73
2021/04/05 08:51:35;;;;;;;6.30;1.85;;;4.90;99.90;;;;;;5093690;28;20083;-73
2021/04/05 08:54:04;;;;;;;6.00;1.65;;;4.90;99.90;;;;;;5095225;28;20043;-73
2021/04/05 08:56:38;;;;;;;4.35;1.65;;;4.90;99.90;;;;;;5095079;28;20465;-73
2021/04/05 08:59:12;;;;;;;4.30;1.40;;;4.90;99.90;;;;;;5095012;28;20040;-73
2021/04/05 09:01:46;;;;;;;3.53;1.50;;;4.90;99.90;;;;;;5095311;28;20044;-73
2021/04/05 09:04:17;;;;;;;2.08;1.30;;;4.90;99.90;;;;;;5095005;28;20024;-73
2021/04/05 09:06:53;;;;;;;3.28;1.00;;;4.70;99.90;;;;;;5095195;28;20107;-73
2021/04/05 09:09:20;;;;;;;4.65;0.98;;;4.70;99.90;;;;;;5095164;28;20028;-73
2021/04/05 09:11:47;;;;;;;4.50;1.38;;;4.60;99.90;;;;;;5094130;28;20026;-72
2021/04/05 09:14:15;;;;;;;4.20;1.23;;;4.50;99.90;;;;;;5095084;28;20016;-73
2021/04/05 09:17:21;;;;;;;8.75;1.48;;;4.30;99.90;;;;;;5093622;28;20078;-73
2021/04/05 09:23:12;;;;;;;8.15;1.67;;;3.90;99.90;;;;;;5091832;27;20401;-73
2021/04/05 09:25:47;;;;;;;12.80;3.20;;;3.80;99.90;;;;;;5091288;28;20419;-73
2021/04/05 09:28:52;;;;;;;8.70;2.13;;;3.80;99.90;;;;;;5091506;28;20067;-73
2021/04/05 09:31:34;;;;;;;9.98;2.15;;;3.90;99.90;;;;;;5090842;28;20027;-73
2021/04/05 09:34:34;;;;;;;9.73;1.92;;;4.10;99.90;;;;;;5091465;28;20059;-73
2021/04/05 09:37:40;;;;;;;11.27;2.15;;;4.40;99.90;;;;;;5091330;28;20043;-73
2021/04/05 09:40:33;;;;;;;13.30;2.42;;;4.50;99.90;;;;;;5090707;28;20440;-73
2021/04/05 09:43:38;;;;;;;10.48;2.13;;;4.50;99.90;;;;;;5090608;28;20036;-74
2021/04/05 09:46:32;;;;;;;16.52;2.45;;;4.60;99.90;;;;;;5090521;28;20437;-73
2021/04/05 09:49:25;;;;;;;18.35;2.30;;;4.70;99.90;;;;;;5091130;28;20032;-73
2021/04/05 09:52:30;;;;;;;12.95;2.25;;;4.70;99.90;;;;;;5090447;28;20025;-73
2021/04/05 09:55:13;;;;;;;10.73;2.40;;;4.60;99.90;;;;;;5090215;28;20469;-73
2021/04/05 09:57:46;;;;;;;17.27;2.78;;;4.40;99.90;;;;;;5090710;28;20024;-73
2021/04/05 10:00:16;;;;;;;10.02;1.80;;;3.80;99.90;;;;;;5090684;28;20081;-73
2021/04/05 10:02:52;;;;;;;9.68;2.15;;;3.50;99.90;;;;;;5090788;28;20548;-73
2021/04/05 10:05:20;;;;;;;15.70;2.67;;;3.50;99.90;;;;;;5090830;28;20024;-73
2021/04/05 10:07:48;;;;;;;8.27;1.85;;;3.50;99.90;;;;;;5090805;28;20016;-73
2021/04/05 10:10:15;;;;;;;12.30;1.98;;;3.70;99.90;;;;;;5090466;28;20024;-73
2021/04/05 10:12:44;;;;;;;5.15;1.60;;;3.70;99.90;;;;;;5090704;28;20518;-73
2021/04/05 10:15:14;;;;;;;5.80;1.30;;;3.90;99.90;;;;;;5090652;28;20052;-73
2021/04/05 10:17:53;;;;;;;8.70;1.40;;;4.10;99.90;;;;;;5090587;28;20031;-73
2021/04/05 10:20:25;;;;;;;6.65;1.58;;;4.10;99.90;;;;;;5073418;28;20362;-74
2021/04/05 10:22:52;;;;;;;2.83;1.33;;;4.40;99.90;;;;;;5089742;28;20107;-73
2021/04/05 10:25:21;;;;;;;9.45;1.50;;;4.40;99.90;;;;;;5089898;28;20024;-72
2021/04/05 10:27:52;;;;;;;10.63;1.80;;;4.50;99.90;;;;;;5089852;28;20024;-73
2021/04/05 10:30:20;;;;;;;14.02;2.65;;;4.50;99.90;;;;;;5090068;28;20487;-73
2021/04/05 10:32:46;;;;;;;12.07;2.17;;;4.60;99.90;;;;;;5085353;28;20052;-73
2021/04/05 10:35:15;;;;;;;12.23;2.30;;;4.70;99.90;;;;;;5075316;28;20052;-73
2021/04/05 10:37:43;;;;;;;12.55;2.47;;;4.90;99.90;;;;;;5076736;28;20343;-73
2021/04/05 10:40:13;;;;;;;10.30;1.70;;;4.90;99.90;;;;;;5075669;28;20025;-73
2021/04/05 10:42:58;;;;;;;10.35;1.83;;;4.90;99.90;;;;;;5075416;28;20016;-73
2021/04/05 10:45:27;;;;;;;4.95;0.70;;;4.80;99.90;;;;;;5076344;28;20052;-73
2021/04/05 10:48:08;;;;;;;3.80;0.90;;;3.40;99.90;;;;;;5058276;28;20017;-73
2021/04/05 10:50:39;;;;;;;2.05;1.10;;;2.40;99.90;;;;;;5076502;28;20020;-73
2021/04/05 10:53:11;;;;;;;5.95;1.30;;;2.10;99.90;;;;;;5076179;28;20048;-73
2021/04/05 10:55:40;;;;;;;6.18;1.27;;;2.10;99.90;;;;;;5075374;28;20056;-73
2021/04/05 10:58:10;;;;;;;4.03;1.10;;;2.30;99.90;;;;;;5074610;28;20025;-74
2021/04/05 11:00:39;;;;;;;3.13;1.40;;;2.30;99.90;;;;;;5076214;28;20103;-73
2021/04/05 11:03:25;;;;;;;4.30;1.17;;;2.70;99.90;;;;;;5076257;28;20044;-73
2021/04/05 11:05:53;;;;;;;1.17;0.75;;;3.00;99.90;;;;;;5076222;28;20070;-74
2021/04/05 11:08:21;;;;;;;3.38;0.93;;;3.30;99.90;;;;;;5076144;28;20016;-73
2021/04/05 11:10:49;;;;;;;4.63;1.10;;;3.60;99.90;;;;;;5076097;28;20062;-73
2021/04/05 11:13:19;;;;;;;5.80;0.90;;;4.10;99.90;;;;;;5074332;28;20021;-73
2021/04/05 11:15:47;;;;;;;3.60;1.20;;;4.20;99.90;;;;;;5058021;28;20021;-73
2021/04/05 11:18:16;;;;;;;4.55;1.05;;;4.20;99.90;;;;;;5075997;28;20021;-73
2021/04/05 11:20:43;;;;;;;4.40;1.00;;;4.30;99.90;;;;;;5073856;28;20128;-73
2021/04/05 11:23:15;;;;;;;2.17;1.05;;;4.50;99.90;;;;;;5075569;28;20028;-73
2021/04/05 11:25:44;;;;;;;6.95;1.13;;;4.60;99.90;;;;;;5075790;28;20103;-73
2021/04/05 11:31:06;;;;;;;3.88;1.40;;;4.60;99.90;;;;;;5112282;27;20400;-73
2021/04/05 11:33:35;;;;;;;4.20;1.52;;;4.20;99.90;;;;;;5111687;28;20119;-73
2021/04/05 11:36:04;;;;;;;3.83;1.50;;;4.40;99.90;;;;;;5111340;28;20020;-73
2021/04/05 11:38:35;;;;;;;10.27;1.48;;;4.50;99.90;;;;;;5111601;28;20019;-74
2021/04/05 11:41:04;;;;;;;5.45;1.20;;;4.50;99.90;;;;;;5110557;28;20422;-73
2021/04/05 11:43:32;;;;;;;5.07;1.35;;;4.40;99.90;;;;;;5110286;28;20342;-73
2021/04/05 11:46:06;;;;;;;10.30;1.70;;;4.60;99.90;;;;;;5111644;28;20020;-73
2021/04/05 11:48:31;;;;;;;8.90;2.28;;;4.60;99.90;;;;;;5111622;28;20022;-73
2021/04/05 11:50:57;;;;;;;15.15;1.70;;;4.90;99.90;;;;;;5111293;28;20099;-73
2021/04/05 11:53:55;;;;;;;7.50;1.55;;;5.10;99.90;;;;;;5111538;28;20069;-73
2021/04/05 11:56:28;;;;;;;7.43;1.77;;;5.20;99.90;;;;;;5111066;28;20020;-73
2021/04/05 11:59:19;;;;;;;8.40;1.88;;;5.10;99.90;;;;;;5111549;28;20376;-73
2021/04/05 12:01:57;;;;;;;13.60;1.95;;;5.10;99.90;;;;;;5111364;28;20465;-73
2021/04/05 12:04:31;;;;;;;7.55;2.03;;;5.00;99.90;;;;;;5111092;28;20404;-73
2021/04/05 12:06:58;;;;;;;;;;;5.20;99.90;;;;;;5111710;28;20020;-73
2021/04/05 12:09:32;;;;;;;6.45;1.60;;;5.40;99.90;;;;;;5109784;28;19915;-74
2021/04/05 12:12:02;;;;;;;9.98;2.25;;;5.50;99.90;;;;;;5110945;28;20023;-73
2021/04/05 12:14:30;;;;;;;5.85;1.60;;;5.60;99.90;;;;;;5110811;28;20469;-72
2021/04/05 12:16:57;;;;;;;7.38;1.90;;;6.30;99.90;;;;;;5109719;28;20035;-73
2021/04/05 12:19:41;;;;;;;5.45;1.65;;;6.60;99.90;;;;;;5111119;28;20024;-73
2021/04/05 12:22:08;;;;;;;7.18;2.42;;;6.60;99.90;;;;;;5110978;28;20067;-72
2021/04/05 12:24:36;;;;;;;9.80;1.98;;;6.60;99.90;;;;;;5110672;28;20115;-73
2021/04/05 12:27:06;;;;;;;11.25;2.13;;;6.10;99.90;;;;;;5110634;28;20026;-73
2021/04/05 12:29:33;;;;;;;6.00;1.38;;;5.60;99.90;;;;;;5110153;28;20031;-72
2021/04/05 12:32:02;;;;;;;13.23;1.33;;;4.70;99.90;;;;;;5110806;28;20373;-73
2021/04/05 12:34:30;;;;;;;7.82;1.40;;;4.20;99.90;;;;;;5110721;28;20032;-73
2021/04/05 12:36:57;;;;;;;10.20;1.38;;;4.50;99.90;;;;;;5110716;28;20012;-73
2021/04/05 12:39:30;;;;;;;9.18;1.90;;;5.00;99.90;;;;;;5109382;28;20074;-73
2021/04/05 12:41:56;;;;;;;10.18;1.55;;;5.40;99.90;;;;;;5099687;28;20104;-73
2021/04/05 12:44:28;;;;;;;11.43;1.70;;;5.40;99.90;;;;;;5096675;28;20415;-73
2021/04/05 12:46:55;;;;;;;4.07;1.00;;;5.60;99.90;;;;;;5096866;28;20118;-73
2021/04/05 12:49:25;;;;;;;4.65;0.98;;;5.60;99.90;;;;;;5096524;28;20020;-73
2021/04/05 12:51:54;;;;;;;8.00;1.23;;;5.90;99.90;;;;;;5096567;28;20051;-73
2021/04/05 12:54:23;;;;;;;3.33;1.10;;;5.80;99.90;;;;;;5096844;28;20061;-73
2021/04/05 12:56:52;;;;;;;5.80;1.60;;;6.10;99.90;;;;;;5096766;28;20016;-73
2021/04/05 12:59:22;;;;;;;4.47;0.90;;;6.20;99.90;;;;;;5096724;28;20016;-75
2021/04/05 13:01:52;;;;;;;6.20;1.13;;;5.80;99.90;;;;;;5096387;28;20043;-73
2021/04/05 13:04:21;;;;;;;6.05;0.98;;;6.20;99.90;;;;;;5096108;28;20031;-73
2021/04/05 13:06:55;;;;;;;6.38;1.75;;;6.00;99.90;;;;;;5096565;28;20108;-74
2021/04/05 13:09:24;;;;;;;4.07;1.17;;;5.90;99.90;;;;;;5096205;28;20103;-73
2021/04/05 13:11:56;;;;;;;9.35;1.42;;;5.70;99.90;;;;;;5096477;28;20033;-73
2021/04/05 13:14:28;;;;;;;8.27;1.48;;;5.80;99.90;;;;;;5095401;28;20064;-74
2021/04/05 13:17:19;;;;;;;5.25;1.15;;;5.90;99.90;;;;;;5095856;28;20020;-73
2021/04/05 13:20:10;;;;;;;3.58;0.80;;;5.70;99.90;;;;;;5096352;28;20024;-73
2021/04/05 13:22:37;;;;;;;6.72;1.45;;;5.50;99.90;;;;;;5095681;28;20024;-73
2021/04/05 13:25:09;;;;;;;1.40;0.80;;;5.60;99.90;;;;;;5094835;28;20460;-73
2021/04/05 13:27:36;;;;;;;2.35;0.90;;;5.50;99.90;;;;;;5095891;28;20436;-73
2021/04/05 13:30:05;;;;;;;6.10;0.80;;;5.50;99.90;;;;;;5095550;28;20377;-73
2021/04/05 13:32:33;;;;;;;4.20;0.80;;;5.70;99.90;;;;;;5095794;28;20016;-73
2021/04/05 13:35:05;;;;;;;4.03;1.00;;;6.10;99.90;;;;;;5095810;28;20028;-73